CA-0117 weather

CLOSED Drake Point Airport
Nunavut, Canada

Public forecast

Using degrees Celsius for public forecast. Weather courtesy of forecast.io.

METAR (pilot weather report)

Closest report is Resolute Bay Airport, 226.2 nm (418.8 km) ESE. Retrieved 2019/04/24 05:00 UTC (25 minutes ago):

CYRB 240500Z 32005KT 8SM -SN SCT019 BKN026 OVC080 M26/M29 A2994 RMK SC3SC4AC1 SLP152

TAF (pilot weather forecast)

Forecast is more than 12 hours old.

Closest forecast is Resolute Bay Airport, 226.2 nm (418.8 km) ESE. Retrieved 2019/04/23 00:42 UTC (1 day ago):

TAF CYRB 232338Z 2400/2424 31015KT P6SM IC SCT025 BECMG 2402/2404 35010KT FM241400 02005KT P6SM IC FEW020 BECMG 2420/2422 09008KT RMK NXT FCST BY 240600Z